createdAt,value
2018-02-17T00:00:17.636Z,95.00
2018-02-17T00:02:45.856Z,94.70
2018-02-17T00:05:14.895Z,94.40
2018-02-17T00:07:43.406Z,94.40
2018-02-17T00:10:12.426Z,94.00
2018-02-17T00:12:41.469Z,93.80
2018-02-17T00:15:10.449Z,93.80
2018-02-17T00:17:38.709Z,93.80
2018-02-17T00:20:07.725Z,93.80
2018-02-17T00:22:35.962Z,93.80
2018-02-17T00:25:05.002Z,93.70
2018-02-17T00:27:33.389Z,93.70
2018-02-17T00:30:01.581Z,93.50
2018-02-17T00:32:29.786Z,93.60
2018-02-17T00:34:58.084Z,93.50
2018-02-17T00:37:27.070Z,93.20
2018-02-17T00:39:56.090Z,93.40
2018-02-17T00:42:25.081Z,93.20
2018-02-17T00:44:53.417Z,93.20
2018-02-17T00:47:21.783Z,93.10
2018-02-17T00:49:50.053Z,93.00
2018-02-17T00:52:18.276Z,92.90
2018-02-17T00:54:47.297Z,93.00
2018-02-17T00:57:15.602Z,93.00
2018-02-17T00:59:43.922Z,92.90
2018-02-17T01:02:12.917Z,92.50
2018-02-17T01:04:42.036Z,92.50
2018-02-17T01:07:11.030Z,92.60
2018-02-17T01:09:40.013Z,92.80
2018-02-17T01:12:09.025Z,93.10
2018-02-17T01:14:37.232Z,93.10
2018-02-17T01:17:05.474Z,93.20
2018-02-17T01:19:33.953Z,93.20
2018-02-17T01:22:02.156Z,93.20
2018-02-17T01:24:30.390Z,93.40
2018-02-17T01:27:01.863Z,93.20
2018-02-17T01:29:30.848Z,93.20
2018-02-17T01:31:59.817Z,93.30
2018-02-17T01:34:28.059Z,93.20
2018-02-17T01:36:56.257Z,93.40
2018-02-17T01:39:24.456Z,93.50
2018-02-17T01:41:53.485Z,93.60
2018-02-17T01:44:21.704Z,93.60
2018-02-17T01:46:49.901Z,92.70
2018-02-17T01:49:18.909Z,92.60
2018-02-17T01:51:47.868Z,92.70
2018-02-17T01:54:16.120Z,92.70
2018-02-17T01:56:44.349Z,93.00
2018-02-17T01:59:13.341Z,92.80
2018-02-17T02:01:42.318Z,93.30
2018-02-17T02:04:10.552Z,93.30
2018-02-17T02:06:38.772Z,93.40
2018-02-17T02:09:07.763Z,93.50
2018-02-17T02:11:36.039Z,93.50
2018-02-17T02:14:04.240Z,93.50
2018-02-17T02:16:32.523Z,93.70
2018-02-17T02:19:00.844Z,93.60
2018-02-17T02:21:29.156Z,93.80
2018-02-17T02:23:58.153Z,94.60
2018-02-17T02:26:27.208Z,94.50
2018-02-17T02:28:55.637Z,94.50
2018-02-17T02:31:24.603Z,94.10
2018-02-17T02:33:52.881Z,93.80
2018-02-17T02:36:21.062Z,93.60
2018-02-17T02:38:50.058Z,94.40
2018-02-17T02:41:19.123Z,94.40
2018-02-17T02:43:47.448Z,94.40
2018-02-17T02:46:16.412Z,94.30
2018-02-17T02:48:45.500Z,94.10
2018-02-17T02:51:13.762Z,94.10
2018-02-17T02:53:41.977Z,94.10
2018-02-17T02:56:10.982Z,94.40
2018-02-17T02:58:39.237Z,94.30
2018-02-17T03:01:07.421Z,94.40
2018-02-17T03:03:36.427Z,94.00
2018-02-17T03:06:05.421Z,94.10
2018-02-17T03:08:34.381Z,94.20
2018-02-17T03:11:02.760Z,94.10
2018-02-17T03:13:31.312Z,94.00
2018-02-17T03:15:59.618Z,93.90
2018-02-17T03:18:27.904Z,93.80
2018-02-17T03:20:56.084Z,93.60
2018-02-17T03:23:25.091Z,93.00
2018-02-17T03:25:54.270Z,92.60
2018-02-17T03:28:22.539Z,92.70
2018-02-17T03:30:52.015Z,92.80
2018-02-17T03:33:20.397Z,93.20
2018-02-17T03:35:48.638Z,93.60
2018-02-17T03:38:17.608Z,93.40
2018-02-17T03:40:45.879Z,93.40
2018-02-17T03:43:14.125Z,93.50
2018-02-17T03:45:42.329Z,93.40
2018-02-17T03:48:10.553Z,93.60
2018-02-17T03:50:38.774Z,93.80
2018-02-17T03:53:07.001Z,94.00
2018-02-17T03:55:35.353Z,94.00
2018-02-17T03:58:03.568Z,94.20
2018-02-17T04:00:32.703Z,93.90
2018-02-17T04:03:01.024Z,93.90
2018-02-17T04:05:29.269Z,93.80
2018-02-17T04:07:58.242Z,93.70
2018-02-17T04:10:26.542Z,93.70
2018-02-17T04:12:54.757Z,94.10
2018-02-17T04:15:22.953Z,94.10
2018-02-17T04:17:51.185Z,94.00
2018-02-17T04:20:19.409Z,93.30
2018-02-17T04:22:47.601Z,93.30
2018-02-17T04:25:16.588Z,93.60
2018-02-17T04:27:45.577Z,93.30
2018-02-17T04:30:13.776Z,93.30
2018-02-17T04:32:42.002Z,92.70
2018-02-17T04:35:10.306Z,92.50
2018-02-17T04:37:38.515Z,92.30
2018-02-17T04:43:11.543Z,92.50
2018-02-17T04:45:40.648Z,93.00
2018-02-17T04:48:11.473Z,93.40
2018-02-17T04:50:39.678Z,93.40
2018-02-17T04:53:13.588Z,93.50
2018-02-17T04:55:57.635Z,93.40
2018-02-17T04:58:42.565Z,93.50
2018-02-17T05:01:11.558Z,93.70
2018-02-17T05:03:49.899Z,93.30
2018-02-17T05:06:20.532Z,93.20
2018-02-17T05:08:51.585Z,93.00
2018-02-17T05:11:19.780Z,93.20
2018-02-17T05:13:48.748Z,93.00
2018-02-17T05:16:30.892Z,93.00
2018-02-17T05:19:03.669Z,92.90
2018-02-17T05:21:32.358Z,93.00
2018-02-17T05:24:03.135Z,93.00
2018-02-17T05:26:33.018Z,93.00
2018-02-17T05:32:02.360Z,92.80
2018-02-17T05:34:34.189Z,92.90
2018-02-17T05:37:02.384Z,92.70
2018-02-17T05:39:43.308Z,92.90
2018-02-17T05:42:12.300Z,93.00
2018-02-17T05:44:45.240Z,93.00
2018-02-17T05:47:30.182Z,93.00
2018-02-17T05:50:04.610Z,92.90
2018-02-17T05:52:32.871Z,92.90
2018-02-17T05:55:01.153Z,92.70
2018-02-17T05:57:29.549Z,92.10
2018-02-17T05:59:57.794Z,92.20
2018-02-17T06:02:26.070Z,92.30
2018-02-17T06:04:54.341Z,92.30
2018-02-17T06:07:23.331Z,92.10
2018-02-17T06:09:52.448Z,92.20
2018-02-17T06:12:21.930Z,92.20
2018-02-17T06:14:50.900Z,92.70
2018-02-17T06:17:19.108Z,92.70
2018-02-17T06:19:47.421Z,92.80
2018-02-17T06:22:15.626Z,92.80
2018-02-17T06:24:43.897Z,92.20
2018-02-17T06:27:12.110Z,92.20
2018-02-17T06:29:40.391Z,92.30
2018-02-17T06:32:08.602Z,92.20
2018-02-17T06:34:36.868Z,92.10
2018-02-17T06:37:05.081Z,92.50
2018-02-17T06:39:33.281Z,92.10
2018-02-17T06:42:02.340Z,92.10
2018-02-17T06:44:30.589Z,92.10
2018-02-17T06:46:58.820Z,92.00
2018-02-17T06:49:28.024Z,92.10
2018-02-17T06:51:57.017Z,91.90
2018-02-17T06:54:25.997Z,92.00
2018-02-17T06:56:55.228Z,91.90
2018-02-17T06:59:23.441Z,91.90
2018-02-17T07:01:51.689Z,91.70
2018-02-17T07:04:20.077Z,91.60
2018-02-17T07:06:48.344Z,91.60
2018-02-17T07:09:16.572Z,90.70
2018-02-17T07:11:44.789Z,90.60
2018-02-17T07:14:12.994Z,90.40
2018-02-17T07:16:41.213Z,90.70
2018-02-17T07:19:09.500Z,90.20
2018-02-17T07:21:37.706Z,90.20
2018-02-17T07:24:06.292Z,90.30
2018-02-17T07:26:34.522Z,89.90
2018-02-17T07:29:03.524Z,90.10
2018-02-17T07:31:31.721Z,90.10
2018-02-17T07:33:59.960Z,89.90
2018-02-17T07:36:30.132Z,90.50
2018-02-17T07:38:58.340Z,90.50
2018-02-17T07:41:27.394Z,89.80
2018-02-17T07:43:55.633Z,89.80
2018-02-17T07:46:23.879Z,90.40
2018-02-17T07:48:52.127Z,89.50
2018-02-17T07:51:20.850Z,88.90
2018-02-17T07:53:49.100Z,89.50
2018-02-17T07:56:17.522Z,89.90
2018-02-17T07:58:45.813Z,89.00
2018-02-17T08:01:14.061Z,90.10
2018-02-17T08:03:43.142Z,90.10
2018-02-17T08:06:11.496Z,90.00
2018-02-17T08:08:39.697Z,89.70
2018-02-17T08:11:07.924Z,89.00
2018-02-17T08:13:36.125Z,88.70
2018-02-17T08:16:04.325Z,89.40
2018-02-17T08:18:32.576Z,89.80
2018-02-17T08:21:00.793Z,89.20
2018-02-17T08:23:29.870Z,88.70
2018-02-17T08:25:58.360Z,88.70
2018-02-17T08:28:27.341Z,89.10
2018-02-17T08:30:55.711Z,89.10
2018-02-17T08:33:24.069Z,89.30
2018-02-17T08:35:52.330Z,89.30
2018-02-17T08:38:22.916Z,88.80
2018-02-17T08:40:51.949Z,87.80
2018-02-17T08:43:20.967Z,88.60
2018-02-17T08:45:49.181Z,88.60
2018-02-17T08:48:18.415Z,88.50
2018-02-17T08:50:46.688Z,88.50
2018-02-17T08:53:14.905Z,89.00
2018-02-17T08:55:43.119Z,89.30
2018-02-17T08:58:12.080Z,89.80
2018-02-17T09:00:40.285Z,89.80
2018-02-17T09:03:09.284Z,89.70
2018-02-17T09:05:38.266Z,89.40
2018-02-17T09:08:07.246Z,89.60
2018-02-17T09:10:48.157Z,89.70
2018-02-17T09:13:16.532Z,89.90
2018-02-17T09:15:45.520Z,89.40
2018-02-17T09:18:13.773Z,89.50
2018-02-17T09:20:42.745Z,90.10
2018-02-17T09:23:10.953Z,89.60
2018-02-17T09:25:39.952Z,89.10
2018-02-17T09:28:08.221Z,89.20
2018-02-17T09:30:37.188Z,89.50
2018-02-17T09:33:05.544Z,89.50
2018-02-17T09:35:33.766Z,89.20
2018-02-17T09:38:02.842Z,88.70
2018-02-17T09:40:31.256Z,88.70
2018-02-17T09:42:59.467Z,88.30
2018-02-17T09:45:27.776Z,89.20
2018-02-17T09:47:56.066Z,88.70
2018-02-17T09:50:25.552Z,88.20
2018-02-17T09:52:53.774Z,88.20
2018-02-17T09:55:22.032Z,87.10
2018-02-17T09:57:50.997Z,86.40
2018-02-17T10:00:19.191Z,86.40
2018-02-17T10:02:48.177Z,85.80
2018-02-17T10:05:16.370Z,85.70
2018-02-17T10:07:44.565Z,85.40
2018-02-17T10:10:12.793Z,85.10
2018-02-17T10:12:41.140Z,85.80
2018-02-17T10:15:09.365Z,84.90
2018-02-17T10:17:38.961Z,85.00
2018-02-17T10:20:07.716Z,85.50
2018-02-17T10:22:35.924Z,85.80
2018-02-17T10:25:04.184Z,86.10
2018-02-17T10:27:32.385Z,85.80
2018-02-17T10:30:01.380Z,86.10
2018-02-17T10:32:30.477Z,87.10
2018-02-17T10:34:59.492Z,88.50
2018-02-17T10:37:27.794Z,88.40
2018-02-17T10:39:56.073Z,87.50
2018-02-17T10:42:25.544Z,87.60
2018-02-17T10:44:53.852Z,87.10
2018-02-17T10:47:22.865Z,87.70
2018-02-17T10:49:51.093Z,87.70
2018-02-17T10:52:19.297Z,87.10
2018-02-17T10:54:47.532Z,87.20
2018-02-17T10:57:15.817Z,87.40
2018-02-17T10:59:44.015Z,85.70
2018-02-17T11:02:12.424Z,84.40
2018-02-17T11:04:40.637Z,84.50
2018-02-17T11:07:08.920Z,84.20
2018-02-17T11:09:37.142Z,83.70
2018-02-17T11:12:05.919Z,83.20
2018-02-17T11:14:34.099Z,83.70
2018-02-17T11:17:02.313Z,83.10
2018-02-17T11:19:31.481Z,84.30
2018-02-17T11:21:59.675Z,84.20
2018-02-17T11:24:27.991Z,83.90
2018-02-17T11:26:56.182Z,84.90
2018-02-17T11:29:24.373Z,83.70
2018-02-17T11:31:52.645Z,83.10
2018-02-17T11:34:20.837Z,84.10
2018-02-17T11:36:49.195Z,84.90
2018-02-17T11:39:17.417Z,85.10
2018-02-17T11:41:46.377Z,85.30
2018-02-17T11:44:14.570Z,85.30
2018-02-17T11:46:42.842Z,85.10
2018-02-17T11:49:11.075Z,85.20
2018-02-17T11:51:39.285Z,85.70
2018-02-17T11:54:07.525Z,86.30
2018-02-17T11:56:35.772Z,86.40
2018-02-17T11:59:04.757Z,86.20
2018-02-17T12:01:33.869Z,86.10
2018-02-17T12:04:02.196Z,86.80
2018-02-17T12:06:30.389Z,87.20
2018-02-17T12:08:58.703Z,87.20
2018-02-17T12:11:26.972Z,86.90
2018-02-17T12:13:55.247Z,85.50
2018-02-17T12:16:23.476Z,86.30
2018-02-17T12:18:51.688Z,86.50
2018-02-17T12:21:20.742Z,86.90
2018-02-17T12:23:48.968Z,86.90
2018-02-17T12:26:17.929Z,85.70
2018-02-17T12:28:46.176Z,85.70
2018-02-17T12:31:14.393Z,86.40
2018-02-17T12:33:43.413Z,86.50
2018-02-17T12:36:11.601Z,86.50
2018-02-17T12:38:39.811Z,86.00
2018-02-17T12:41:08.057Z,86.40
2018-02-17T12:43:36.252Z,85.50
2018-02-17T12:46:04.521Z,86.00
2018-02-17T12:48:32.932Z,85.10
2018-02-17T12:51:01.125Z,85.20
2018-02-17T12:53:30.165Z,85.00
2018-02-17T12:55:58.364Z,85.00
2018-02-17T12:58:26.553Z,84.60
2018-02-17T13:00:55.669Z,84.30
2018-02-17T13:03:24.759Z,83.80
2018-02-17T13:05:53.717Z,84.20
2018-02-17T13:08:21.942Z,84.20
2018-02-17T13:10:50.153Z,84.40
2018-02-17T13:13:18.391Z,84.10
2018-02-17T13:15:46.657Z,84.00
2018-02-17T13:18:15.609Z,79.90
2018-02-17T13:20:43.874Z,79.20
2018-02-17T13:23:12.913Z,79.00
2018-02-17T13:25:41.912Z,80.10
2018-02-17T13:28:16.750Z,77.50
2018-02-17T13:30:44.993Z,77.50
2018-02-17T13:33:13.259Z,76.10
2018-02-17T13:35:42.841Z,75.60
2018-02-17T13:38:11.079Z,75.60
2018-02-17T13:40:39.293Z,77.60
2018-02-17T13:43:07.533Z,75.90
2018-02-17T13:45:35.732Z,76.30
2018-02-17T13:48:03.922Z,77.10
2018-02-17T13:50:32.161Z,76.20
2018-02-17T13:53:00.354Z,75.60
2018-02-17T13:55:28.632Z,75.90
2018-02-17T13:57:56.897Z,75.60
2018-02-17T14:00:25.273Z,75.70
2018-02-17T14:02:54.297Z,76.80
2018-02-17T14:05:22.510Z,76.80
2018-02-17T14:07:50.761Z,76.30
2018-02-17T14:10:18.985Z,77.00
2018-02-17T14:12:47.680Z,77.10
2018-02-17T14:15:15.886Z,76.70
2018-02-17T14:17:44.134Z,77.20
2018-02-17T14:20:13.392Z,76.00
2018-02-17T14:22:41.582Z,75.20
2018-02-17T14:25:09.827Z,76.40
2018-02-17T14:27:38.069Z,76.10
2018-02-17T14:30:07.005Z,75.50
2018-02-17T14:32:35.232Z,75.50
2018-02-17T14:35:04.326Z,76.40
2018-02-17T14:37:32.638Z,76.20
2018-02-17T14:40:00.841Z,75.30
2018-02-17T14:42:29.160Z,75.60
2018-02-17T14:44:57.412Z,74.20
2018-02-17T14:47:26.402Z,75.70
2018-02-17T14:49:55.376Z,76.10
2018-02-17T14:52:23.578Z,76.00
2018-02-17T14:54:52.583Z,75.80
2018-02-17T14:57:20.860Z,75.80
2018-02-17T14:59:49.087Z,76.70
2018-02-17T15:02:18.079Z,75.30
2018-02-17T15:04:46.504Z,75.40
2018-02-17T15:07:14.712Z,74.50
2018-02-17T15:09:43.030Z,73.00
2018-02-17T15:12:11.264Z,72.70
2018-02-17T15:14:39.488Z,72.70
2018-02-17T15:17:08.443Z,73.70
2018-02-17T15:19:36.654Z,73.70
2018-02-17T15:22:05.727Z,72.60
2018-02-17T15:24:34.122Z,72.60
2018-02-17T15:27:02.394Z,72.70
2018-02-17T15:29:30.693Z,72.90
2018-02-17T15:32:01.693Z,72.50
2018-02-17T15:34:30.537Z,72.50
2018-02-17T15:36:58.733Z,73.70
2018-02-17T15:39:26.964Z,73.30
2018-02-17T15:41:56.089Z,74.20
2018-02-17T15:44:24.941Z,74.20
2018-02-17T15:46:54.041Z,75.30
2018-02-17T15:49:22.301Z,75.60
2018-02-17T15:51:50.517Z,75.50
2018-02-17T15:54:18.737Z,77.10
2018-02-17T15:56:47.197Z,77.20
2018-02-17T15:59:15.529Z,77.70
2018-02-17T16:01:43.729Z,78.40
2018-02-17T16:04:12.805Z,78.30
2018-02-17T16:06:41.813Z,78.30
2018-02-17T16:09:10.089Z,78.40
2018-02-17T16:11:38.610Z,78.40
2018-02-17T16:14:06.829Z,77.90
2018-02-17T16:16:35.925Z,78.00
2018-02-17T16:19:05.363Z,77.50
2018-02-17T16:21:33.978Z,77.50
2018-02-17T16:24:02.347Z,77.60
2018-02-17T16:26:30.609Z,76.90
2018-02-17T16:28:58.913Z,77.40
2018-02-17T16:31:27.164Z,77.10
2018-02-17T16:33:55.724Z,76.70
2018-02-17T16:36:23.935Z,76.40
2018-02-17T16:38:52.148Z,77.10
2018-02-17T16:41:21.122Z,76.20
2018-02-17T16:43:49.418Z,76.20
2018-02-17T16:46:17.638Z,76.90
2018-02-17T16:48:45.874Z,76.50
2018-02-17T16:51:14.859Z,77.00
2018-02-17T16:53:43.138Z,76.90
2018-02-17T16:56:11.441Z,76.30
2018-02-17T16:58:39.645Z,76.80
2018-02-17T17:01:07.945Z,76.90
2018-02-17T17:03:36.309Z,76.20
2018-02-17T17:06:04.591Z,76.00
2018-02-17T17:08:32.833Z,76.50
2018-02-17T17:11:01.141Z,76.50
2018-02-17T17:13:29.343Z,75.80
2018-02-17T17:15:57.587Z,76.40
2018-02-17T17:18:25.865Z,76.10
2018-02-17T17:20:54.096Z,75.20
2018-02-17T17:23:22.311Z,75.00
2018-02-17T17:25:50.546Z,74.80
2018-02-17T17:28:19.569Z,74.40
2018-02-17T17:30:47.791Z,74.40
2018-02-17T17:33:16.094Z,73.50
2018-02-17T17:35:44.404Z,73.60
2018-02-17T17:38:12.672Z,70.50
2018-02-17T17:40:40.964Z,71.10
2018-02-17T17:43:09.208Z,71.80
2018-02-17T17:45:37.637Z,70.70
2018-02-17T17:48:05.944Z,71.10
2018-02-17T17:53:12.452Z,71.90
2018-02-17T17:55:40.740Z,71.90
2018-02-17T17:58:08.999Z,69.10
2018-02-17T18:00:37.259Z,70.40
2018-02-17T18:03:06.370Z,70.30
2018-02-17T18:05:34.769Z,70.20
2018-02-17T18:08:03.094Z,70.20
2018-02-17T18:10:31.275Z,68.40
2018-02-17T18:12:59.501Z,69.30
2018-02-17T18:15:27.780Z,69.10
2018-02-17T18:17:56.169Z,67.90
2018-02-17T18:20:24.371Z,67.60
2018-02-17T18:22:52.678Z,68.20
2018-02-17T18:25:21.719Z,67.70
2018-02-17T18:27:50.681Z,68.10
2018-02-17T18:30:19.040Z,68.10
2018-02-17T18:32:48.348Z,67.40
2018-02-17T18:35:16.530Z,67.40
2018-02-17T18:37:45.035Z,67.60
2018-02-17T18:40:13.356Z,68.50
2018-02-17T18:42:42.313Z,69.00
2018-02-17T18:45:10.726Z,69.00
2018-02-17T18:47:38.973Z,69.20
2018-02-17T18:50:07.305Z,69.00
2018-02-17T18:52:36.399Z,70.60
2018-02-17T18:55:05.413Z,71.40
2018-02-17T18:57:33.696Z,71.40
2018-02-17T19:00:02.005Z,70.50
2018-02-17T19:02:30.246Z,70.90
2018-02-17T19:04:58.593Z,71.70
2018-02-17T19:07:27.793Z,70.40
2018-02-17T19:09:56.746Z,71.40
2018-02-17T19:12:24.959Z,71.40
2018-02-17T19:14:53.980Z,71.50
2018-02-17T19:17:22.281Z,71.40
2018-02-17T19:19:50.525Z,71.40
2018-02-17T19:22:18.744Z,71.40
2018-02-17T19:24:47.016Z,71.90
2018-02-17T19:27:15.276Z,71.50
2018-02-17T19:29:43.535Z,72.60
2018-02-17T19:32:11.732Z,73.40
2018-02-17T19:34:40.134Z,72.80
2018-02-17T19:37:08.373Z,72.50
2018-02-17T19:39:36.565Z,73.70
2018-02-17T19:42:04.946Z,73.50
2018-02-17T19:44:33.298Z,73.70
2018-02-17T19:47:01.537Z,73.60
2018-02-17T19:49:30.631Z,73.30
2018-02-17T19:51:58.948Z,73.30
2018-02-17T19:54:27.129Z,72.80
2018-02-17T19:56:55.434Z,72.90
2018-02-17T19:59:23.816Z,72.80
2018-02-17T20:01:52.250Z,72.70
2018-02-17T20:04:21.253Z,72.60
2018-02-17T20:06:49.590Z,72.60
2018-02-17T20:09:17.754Z,72.30
2018-02-17T20:11:46.114Z,72.90
2018-02-17T20:14:14.901Z,73.70
2018-02-17T20:16:43.181Z,74.60
2018-02-17T20:19:11.492Z,74.40
2018-02-17T20:21:40.003Z,74.50
2018-02-17T20:24:09.202Z,75.20
2018-02-17T20:26:38.613Z,75.40
2018-02-17T20:29:07.665Z,75.80
2018-02-17T20:31:36.673Z,75.50
2018-02-17T20:34:05.090Z,75.50
2018-02-17T20:36:33.558Z,76.30
2018-02-17T20:39:02.550Z,76.60
2018-02-17T20:41:30.805Z,76.80
2018-02-17T20:43:59.268Z,76.90
2018-02-17T20:46:27.516Z,77.50
2018-02-17T20:48:55.717Z,77.60
2018-02-17T20:51:24.092Z,78.40
2018-02-17T20:53:52.349Z,78.40
2018-02-17T20:56:20.550Z,78.20
2018-02-17T20:58:49.581Z,78.60
2018-02-17T21:01:17.809Z,78.60
2018-02-17T21:03:46.785Z,80.20
2018-02-17T21:06:15.021Z,79.80
2018-02-17T21:08:43.400Z,80.00
2018-02-17T21:11:11.644Z,80.30
2018-02-17T21:13:39.985Z,80.40
2018-02-17T21:16:08.189Z,81.00
2018-02-17T21:18:37.185Z,81.20
2018-02-17T21:21:05.483Z,81.20
2018-02-17T21:23:33.738Z,81.90
2018-02-17T21:26:01.905Z,81.90
2018-02-17T21:28:30.173Z,81.90
2018-02-17T21:30:58.392Z,82.20
2018-02-17T21:33:26.591Z,82.90
2018-02-17T21:35:54.950Z,82.60
2018-02-17T21:38:23.916Z,83.30
2018-02-17T21:40:52.913Z,83.70
2018-02-17T21:43:21.969Z,83.60
2018-02-17T21:45:50.209Z,83.60
2018-02-17T21:48:18.409Z,83.70
2018-02-17T21:50:46.633Z,84.50
2018-02-17T21:53:15.165Z,84.50
2018-02-17T21:55:43.443Z,84.30
2018-02-17T21:58:12.453Z,85.00
2018-02-17T22:00:40.657Z,85.00
2018-02-17T22:03:08.985Z,84.90
2018-02-17T22:05:37.302Z,85.20
2018-02-17T22:08:06.357Z,85.20
2018-02-17T22:10:34.573Z,84.90
2018-02-17T22:13:03.665Z,84.60
2018-02-17T22:15:31.941Z,84.70
2018-02-17T22:18:00.924Z,84.30
2018-02-17T22:20:29.158Z,84.40
2018-02-17T22:22:57.365Z,84.30
2018-02-17T22:25:25.557Z,84.30
2018-02-17T22:27:53.831Z,84.20
2018-02-17T22:30:22.025Z,84.10
2018-02-17T22:32:50.997Z,84.30
2018-02-17T22:35:19.239Z,84.30
2018-02-17T22:37:47.466Z,84.40
2018-02-17T22:40:16.503Z,84.60
2018-02-17T22:42:44.746Z,84.60
2018-02-17T22:45:13.007Z,84.60
2018-02-17T22:47:41.198Z,84.70
2018-02-17T22:50:09.473Z,84.70
2018-02-17T22:52:37.675Z,84.80
2018-02-17T22:55:05.869Z,84.80
2018-02-17T22:57:34.124Z,84.70
2018-02-17T23:00:02.465Z,84.80
2018-02-17T23:02:31.421Z,85.20
2018-02-17T23:04:59.652Z,85.20
2018-02-17T23:07:27.918Z,85.60
2018-02-17T23:09:56.873Z,86.00
2018-02-17T23:12:28.333Z,86.50
2018-02-17T23:14:56.536Z,86.50
2018-02-17T23:17:25.489Z,87.30
2018-02-17T23:19:53.710Z,87.30
2018-02-17T23:22:21.919Z,87.60
2018-02-17T23:24:50.157Z,87.80
2018-02-17T23:27:18.377Z,87.80
2018-02-17T23:29:46.593Z,87.90
2018-02-17T23:32:15.654Z,88.10
2018-02-17T23:34:43.894Z,88.10
2018-02-17T23:37:12.148Z,88.20
2018-02-17T23:39:40.465Z,88.20
2018-02-17T23:42:08.754Z,88.60
2018-02-17T23:44:36.941Z,88.80
2018-02-17T23:47:05.272Z,89.00
2018-02-17T23:49:33.577Z,88.90
2018-02-17T23:52:01.835Z,89.10
2018-02-17T23:54:30.880Z,88.80
2018-02-17T23:56:59.239Z,88.80
2018-02-17T23:59:27.534Z,88.80
